Manhattan, KS (66502)

5:38 PM CDT on August 30, 2015 (GMT -0500)
Riley County Courthouse Plaza | | Change Station
CLOSE
Current Station
Personal Weather Station
Location: Manhattan, KS
Elevation: 1043 ft
Nearby Weather Stations

Elev 1043 ft 39.18 °N, 96.56 °W | Updated 2 minutes ago

Overcast
Overcast
81.6 °F
Feels Like 85 °F
N
9.0
Wind Variable Wind from ENE
Gusts 10.0 mph

Today
High -- | Low -- °F
--% Chance of Precip.
Yesterday
High -- | Low -- °F
Precip. -- in
6:53 AM 8:00 PM
Full, 98% visible
Pressure 29.96 in
Visibility 10.0 miles
Clouds Mostly Cloudy 3500 ft
Heat Index 85 °F
Dew Point 68 °F
Humidity 64%
Rainfall 0.00 in
Snow Depth Not available.
UV 2 out of 12
Pollen 10.50 out of 12
Air Quality Not available.
Flu Activity Not available.
METAR KMHK 302152Z 10009KT 10SM BKN035 27/21 A2998 RMK AO2 SLP143 T02670206
Pressure 29.96 in
Visibility 10.0 miles
Clouds Mostly Cloudy 3500 ft
Heat Index 85 °F
Dew Point 68 °F
Humidity 64%
Rainfall 0.00 in
Snow Depth Not available.
UV 2 out of 12
Pollen 10.50 out of 12
Air Quality Not available.
Flu Activity Not available.
METAR KMHK 302152Z 10009KT 10SM BKN035 27/21 A2998 RMK AO2 SLP143 T02670206

10-Day Weather Forecast

×

Almanac

Astronomy

Aug. 30, 2015 Rise Set
Actual Time
Civil Twilight
Nautical Twilight
Astronomical Twilight
Moon
Length of Visible Light
Length of Day
Tomorrow will be .
, % of the Moon is Illuminated

Today's Extremes

State Highs State Lows

Community

WunderPhotos

Upload Photos

1,851,074 photos uploaded!

WunderBlogs® & News

Nearby

Air Quality

  Air Quality AQ Index Pollutant
Not available.

Snow Depth

Station Depth Elevation

Earthquake Activity

City Distance Mag. Time & Date
Minimum magnitude displayed is 2.5.

Coastal Water Temperatures

Place Temperature

Stations

Nearby Weather Stations

Station Location Temp. Windchill Dew Point Humidity Wind Precip. Elev Updated Type